sensor_id;sensor_type;location;lat;lon;timestamp;P1;durP1;ratioP1;P2;durP2;ratioP2
35606;SDS011;21729;58.392;15.656;2023-04-24T00:02:15;31.67;;;22.85;;
35606;SDS011;21729;58.392;15.656;2023-04-24T00:04:43;34.72;;;23.08;;
35606;SDS011;21729;58.392;15.656;2023-04-24T00:07:11;34.47;;;23.65;;
35606;SDS011;21729;58.392;15.656;2023-04-24T00:09:39;35.67;;;24.50;;
35606;SDS011;21729;58.392;15.656;2023-04-24T00:12:06;39.33;;;24.63;;
35606;SDS011;21729;58.392;15.656;2023-04-24T00:14:33;33.67;;;24.27;;
35606;SDS011;21729;58.392;15.656;2023-04-24T00:17:02;36.28;;;24.60;;
35606;SDS011;21729;58.392;15.656;2023-04-24T00:19:29;36.47;;;24.80;;
35606;SDS011;21729;58.392;15.656;2023-04-24T00:21:56;38.20;;;25.52;;
35606;SDS011;21729;58.392;15.656;2023-04-24T00:24:23;38.35;;;24.60;;
35606;SDS011;21729;58.392;15.656;2023-04-24T00:26:51;39.63;;;26.33;;
35606;SDS011;21729;58.392;15.656;2023-04-24T00:29:18;37.28;;;26.48;;
35606;SDS011;21729;58.392;15.656;2023-04-24T00:31:45;37.95;;;25.52;;
35606;SDS011;21729;58.392;15.656;2023-04-24T00:34:13;39.35;;;26.55;;
35606;SDS011;21729;58.392;15.656;2023-04-24T00:36:41;38.85;;;26.60;;
35606;SDS011;21729;58.392;15.656;2023-04-24T00:39:08;40.13;;;26.05;;
35606;SDS011;21729;58.392;15.656;2023-04-24T00:41:35;40.22;;;27.08;;
35606;SDS011;21729;58.392;15.656;2023-04-24T00:44:02;41.28;;;26.15;;
35606;SDS011;21729;58.392;15.656;2023-04-24T00:46:29;42.58;;;27.83;;
35606;SDS011;21729;58.392;15.656;2023-04-24T00:48:57;43.90;;;28.10;;
35606;SDS011;21729;58.392;15.656;2023-04-24T00:51:27;42.00;;;27.15;;
35606;SDS011;21729;58.392;15.656;2023-04-24T00:53:56;43.83;;;28.30;;
35606;SDS011;21729;58.392;15.656;2023-04-24T00:56:23;42.83;;;27.48;;
35606;SDS011;21729;58.392;15.656;2023-04-24T00:58:50;40.25;;;27.02;;
35606;SDS011;21729;58.392;15.656;2023-04-24T01:01:18;44.63;;;28.15;;
35606;SDS011;21729;58.392;15.656;2023-04-24T01:03:46;38.70;;;27.30;;
35606;SDS011;21729;58.392;15.656;2023-04-24T01:06:15;43.10;;;26.85;;
35606;SDS011;21729;58.392;15.656;2023-04-24T01:08:44;41.90;;;27.38;;
35606;SDS011;21729;58.392;15.656;2023-04-24T01:11:12;44.40;;;28.77;;
35606;SDS011;21729;58.392;15.656;2023-04-24T01:13:40;43.97;;;28.45;;
35606;SDS011;21729;58.392;15.656;2023-04-24T01:16:07;43.33;;;28.13;;
35606;SDS011;21729;58.392;15.656;2023-04-24T01:18:35;43.28;;;28.48;;
35606;SDS011;21729;58.392;15.656;2023-04-24T01:21:02;44.53;;;28.05;;
35606;SDS011;21729;58.392;15.656;2023-04-24T01:23:33;44.88;;;29.40;;
35606;SDS011;21729;58.392;15.656;2023-04-24T01:26:00;46.40;;;29.23;;
35606;SDS011;21729;58.392;15.656;2023-04-24T01:28:27;45.00;;;28.95;;
35606;SDS011;21729;58.392;15.656;2023-04-24T01:30:55;45.83;;;29.20;;
35606;SDS011;21729;58.392;15.656;2023-04-24T01:33:22;45.53;;;28.67;;
35606;SDS011;21729;58.392;15.656;2023-04-24T01:35:50;45.10;;;28.95;;
35606;SDS011;21729;58.392;15.656;2023-04-24T01:38:17;45.58;;;29.10;;
35606;SDS011;21729;58.392;15.656;2023-04-24T01:40:46;48.20;;;29.60;;
35606;SDS011;21729;58.392;15.656;2023-04-24T01:43:13;49.10;;;28.98;;
35606;SDS011;21729;58.392;15.656;2023-04-24T01:45:40;46.35;;;29.25;;
35606;SDS011;21729;58.392;15.656;2023-04-24T01:48:07;45.00;;;28.42;;
35606;SDS011;21729;58.392;15.656;2023-04-24T01:50:35;46.23;;;28.77;;
35606;SDS011;21729;58.392;15.656;2023-04-24T01:53:02;48.13;;;29.17;;
35606;SDS011;21729;58.392;15.656;2023-04-24T01:55:31;45.95;;;28.92;;
35606;SDS011;21729;58.392;15.656;2023-04-24T01:57:59;50.43;;;29.57;;
35606;SDS011;21729;58.392;15.656;2023-04-24T02:00:27;50.15;;;30.38;;
35606;SDS011;21729;58.392;15.656;2023-04-24T02:02:54;47.90;;;29.33;;
35606;SDS011;21729;58.392;15.656;2023-04-24T02:05:21;52.38;;;30.17;;
35606;SDS011;21729;58.392;15.656;2023-04-24T02:07:49;51.20;;;29.98;;
35606;SDS011;21729;58.392;15.656;2023-04-24T02:10:16;49.85;;;29.58;;
35606;SDS011;21729;58.392;15.656;2023-04-24T02:12:43;50.00;;;30.83;;
35606;SDS011;21729;58.392;15.656;2023-04-24T02:15:11;49.97;;;29.05;;
35606;SDS011;21729;58.392;15.656;2023-04-24T02:17:39;49.80;;;30.30;;
35606;SDS011;21729;58.392;15.656;2023-04-24T02:20:06;54.67;;;31.30;;
35606;SDS011;21729;58.392;15.656;2023-04-24T02:22:34;56.72;;;30.85;;
35606;SDS011;21729;58.392;15.656;2023-04-24T02:25:01;54.17;;;30.60;;
35606;SDS011;21729;58.392;15.656;2023-04-24T02:27:28;51.40;;;29.40;;
35606;SDS011;21729;58.392;15.656;2023-04-24T02:29:55;47.37;;;29.70;;
35606;SDS011;21729;58.392;15.656;2023-04-24T02:32:24;50.03;;;29.77;;
35606;SDS011;21729;58.392;15.656;2023-04-24T02:34:51;48.53;;;28.98;;
35606;SDS011;21729;58.392;15.656;2023-04-24T02:37:18;46.38;;;29.70;;
35606;SDS011;21729;58.392;15.656;2023-04-24T02:39:45;46.95;;;29.92;;
35606;SDS011;21729;58.392;15.656;2023-04-24T02:42:13;45.63;;;29.17;;
35606;SDS011;21729;58.392;15.656;2023-04-24T02:44:40;50.67;;;29.35;;
35606;SDS011;21729;58.392;15.656;2023-04-24T02:47:07;43.85;;;28.95;;
35606;SDS011;21729;58.392;15.656;2023-04-24T02:49:36;44.25;;;28.45;;
35606;SDS011;21729;58.392;15.656;2023-04-24T02:52:03;44.33;;;29.87;;
35606;SDS011;21729;58.392;15.656;2023-04-24T02:54:30;49.90;;;29.77;;
35606;SDS011;21729;58.392;15.656;2023-04-24T02:56:57;50.40;;;30.83;;
35606;SDS011;21729;58.392;15.656;2023-04-24T02:59:25;47.58;;;29.67;;
35606;SDS011;21729;58.392;15.656;2023-04-24T03:01:54;58.22;;;30.95;;
35606;SDS011;21729;58.392;15.656;2023-04-24T03:04:21;48.83;;;30.90;;
35606;SDS011;21729;58.392;15.656;2023-04-24T03:06:49;52.22;;;31.35;;
35606;SDS011;21729;58.392;15.656;2023-04-24T03:09:17;49.43;;;31.17;;
35606;SDS011;21729;58.392;15.656;2023-04-24T03:11:45;51.67;;;32.53;;
35606;SDS011;21729;58.392;15.656;2023-04-24T03:14:13;50.35;;;31.48;;
35606;SDS011;21729;58.392;15.656;2023-04-24T03:16:41;49.88;;;32.13;;
35606;SDS011;21729;58.392;15.656;2023-04-24T03:19:08;51.53;;;32.78;;
35606;SDS011;21729;58.392;15.656;2023-04-24T03:21:35;61.85;;;34.00;;
35606;SDS011;21729;58.392;15.656;2023-04-24T03:24:07;57.08;;;33.97;;
35606;SDS011;21729;58.392;15.656;2023-04-24T03:26:34;52.65;;;33.25;;
35606;SDS011;21729;58.392;15.656;2023-04-24T03:29:02;54.53;;;32.75;;
35606;SDS011;21729;58.392;15.656;2023-04-24T03:31:29;52.00;;;33.45;;
35606;SDS011;21729;58.392;15.656;2023-04-24T03:33:56;60.67;;;34.22;;
35606;SDS011;21729;58.392;15.656;2023-04-24T03:36:23;50.00;;;32.65;;
35606;SDS011;21729;58.392;15.656;2023-04-24T03:38:51;47.92;;;30.55;;
35606;SDS011;21729;58.392;15.656;2023-04-24T03:41:19;48.05;;;31.55;;
35606;SDS011;21729;58.392;15.656;2023-04-24T03:43:47;53.25;;;31.85;;
35606;SDS011;21729;58.392;15.656;2023-04-24T03:46:15;45.67;;;30.67;;
35606;SDS011;21729;58.392;15.656;2023-04-24T03:48:42;50.75;;;31.98;;
35606;SDS011;21729;58.392;15.656;2023-04-24T03:51:09;47.50;;;31.15;;
35606;SDS011;21729;58.392;15.656;2023-04-24T03:53:37;45.28;;;30.60;;
35606;SDS011;21729;58.392;15.656;2023-04-24T03:56:04;44.92;;;30.30;;
35606;SDS011;21729;58.392;15.656;2023-04-24T03:58:33;42.25;;;29.98;;
35606;SDS011;21729;58.392;15.656;2023-04-24T04:01:00;42.93;;;29.43;;
35606;SDS011;21729;58.392;15.656;2023-04-24T04:03:27;45.92;;;31.25;;
35606;SDS011;21729;58.392;15.656;2023-04-24T04:05:55;49.80;;;30.52;;
35606;SDS011;21729;58.392;15.656;2023-04-24T04:08:22;42.70;;;30.27;;
35606;SDS011;21729;58.392;15.656;2023-04-24T04:10:49;44.05;;;30.27;;
35606;SDS011;21729;58.392;15.656;2023-04-24T04:13:16;44.55;;;29.23;;
35606;SDS011;21729;58.392;15.656;2023-04-24T04:15:45;39.40;;;28.73;;
35606;SDS011;21729;58.392;15.656;2023-04-24T04:18:13;41.05;;;29.02;;
35606;SDS011;21729;58.392;15.656;2023-04-24T04:20:40;38.38;;;29.13;;
35606;SDS011;21729;58.392;15.656;2023-04-24T04:23:08;40.08;;;28.25;;
35606;SDS011;21729;58.392;15.656;2023-04-24T04:25:36;39.35;;;27.58;;
35606;SDS011;21729;58.392;15.656;2023-04-24T04:28:03;38.80;;;28.70;;
35606;SDS011;21729;58.392;15.656;2023-04-24T04:30:30;37.95;;;28.40;;
35606;SDS011;21729;58.392;15.656;2023-04-24T04:32:59;34.90;;;26.98;;
35606;SDS011;21729;58.392;15.656;2023-04-24T04:35:26;32.55;;;25.90;;
35606;SDS011;21729;58.392;15.656;2023-04-24T04:37:54;33.88;;;26.88;;
35606;SDS011;21729;58.392;15.656;2023-04-24T04:40:21;34.60;;;26.88;;
35606;SDS011;21729;58.392;15.656;2023-04-24T04:42:48;31.40;;;26.55;;
35606;SDS011;21729;58.392;15.656;2023-04-24T04:45:18;32.63;;;26.98;;
35606;SDS011;21729;58.392;15.656;2023-04-24T04:47:45;30.83;;;25.40;;
35606;SDS011;21729;58.392;15.656;2023-04-24T04:50:15;30.70;;;25.02;;
35606;SDS011;21729;58.392;15.656;2023-04-24T04:52:43;29.77;;;25.33;;
35606;SDS011;21729;58.392;15.656;2023-04-24T04:55:10;31.15;;;25.67;;
35606;SDS011;21729;58.392;15.656;2023-04-24T04:57:38;32.70;;;24.88;;
35606;SDS011;21729;58.392;15.656;2023-04-24T05:00:06;37.63;;;26.52;;
35606;SDS011;21729;58.392;15.656;2023-04-24T05:02:35;33.03;;;25.67;;
35606;SDS011;21729;58.392;15.656;2023-04-24T05:05:03;34.75;;;26.65;;
35606;SDS011;21729;58.392;15.656;2023-04-24T05:07:32;32.17;;;25.58;;
35606;SDS011;21729;58.392;15.656;2023-04-24T05:10:00;33.20;;;26.30;;
35606;SDS011;21729;58.392;15.656;2023-04-24T05:12:27;33.63;;;27.02;;
35606;SDS011;21729;58.392;15.656;2023-04-24T05:14:54;34.58;;;25.75;;
35606;SDS011;21729;58.392;15.656;2023-04-24T05:17:21;33.60;;;26.00;;
35606;SDS011;21729;58.392;15.656;2023-04-24T05:19:48;32.05;;;25.35;;
35606;SDS011;21729;58.392;15.656;2023-04-24T05:22:16;31.70;;;25.88;;
35606;SDS011;21729;58.392;15.656;2023-04-24T05:24:47;31.60;;;25.30;;
35606;SDS011;21729;58.392;15.656;2023-04-24T05:27:14;31.00;;;24.67;;
35606;SDS011;21729;58.392;15.656;2023-04-24T05:29:41;31.15;;;24.45;;
35606;SDS011;21729;58.392;15.656;2023-04-24T05:32:09;28.50;;;24.05;;
35606;SDS011;21729;58.392;15.656;2023-04-24T05:34:36;28.77;;;24.48;;
35606;SDS011;21729;58.392;15.656;2023-04-24T05:37:03;29.45;;;24.75;;
35606;SDS011;21729;58.392;15.656;2023-04-24T05:39:33;28.95;;;24.48;;
35606;SDS011;21729;58.392;15.656;2023-04-24T05:42:02;30.02;;;25.02;;
35606;SDS011;21729;58.392;15.656;2023-04-24T05:44:30;36.55;;;26.70;;
35606;SDS011;21729;58.392;15.656;2023-04-24T05:46:57;35.38;;;27.13;;
35606;SDS011;21729;58.392;15.656;2023-04-24T05:49:25;34.50;;;26.13;;
35606;SDS011;21729;58.392;15.656;2023-04-24T05:51:53;35.08;;;26.60;;
35606;SDS011;21729;58.392;15.656;2023-04-24T05:54:20;32.78;;;26.38;;
35606;SDS011;21729;58.392;15.656;2023-04-24T05:56:48;32.72;;;26.00;;
35606;SDS011;21729;58.392;15.656;2023-04-24T05:59:17;33.28;;;26.80;;
35606;SDS011;21729;58.392;15.656;2023-04-24T06:01:44;29.63;;;25.08;;
35606;SDS011;21729;58.392;15.656;2023-04-24T06:04:12;28.92;;;24.10;;
35606;SDS011;21729;58.392;15.656;2023-04-24T06:06:39;26.45;;;23.23;;
35606;SDS011;21729;58.392;15.656;2023-04-24T06:09:07;28.58;;;23.42;;
35606;SDS011;21729;58.392;15.656;2023-04-24T06:11:34;27.13;;;23.88;;
35606;SDS011;21729;58.392;15.656;2023-04-24T06:14:03;28.08;;;23.45;;
35606;SDS011;21729;58.392;15.656;2023-04-24T06:16:33;24.45;;;21.85;;
35606;SDS011;21729;58.392;15.656;2023-04-24T06:19:00;25.90;;;22.23;;
35606;SDS011;21729;58.392;15.656;2023-04-24T06:21:28;25.10;;;21.20;;
35606;SDS011;21729;58.392;15.656;2023-04-24T06:23:56;24.08;;;20.52;;
35606;SDS011;21729;58.392;15.656;2023-04-24T06:26:24;25.77;;;22.65;;
35606;SDS011;21729;58.392;15.656;2023-04-24T06:28:51;25.52;;;21.92;;
35606;SDS011;21729;58.392;15.656;2023-04-24T06:31:24;24.50;;;21.77;;
35606;SDS011;21729;58.392;15.656;2023-04-24T06:33:53;24.90;;;22.20;;
35606;SDS011;21729;58.392;15.656;2023-04-24T06:36:20;23.92;;;21.25;;
35606;SDS011;21729;58.392;15.656;2023-04-24T06:38:47;26.50;;;21.92;;
35606;SDS011;21729;58.392;15.656;2023-04-24T06:41:14;24.10;;;21.50;;
35606;SDS011;21729;58.392;15.656;2023-04-24T06:43:41;25.08;;;21.77;;
35606;SDS011;21729;58.392;15.656;2023-04-24T06:46:08;26.73;;;22.33;;
35606;SDS011;21729;58.392;15.656;2023-04-24T06:48:35;25.63;;;22.00;;
35606;SDS011;21729;58.392;15.656;2023-04-24T06:51:05;26.83;;;22.15;;
35606;SDS011;21729;58.392;15.656;2023-04-24T06:53:32;24.10;;;21.45;;
35606;SDS011;21729;58.392;15.656;2023-04-24T06:56:00;23.30;;;20.43;;
35606;SDS011;21729;58.392;15.656;2023-04-24T06:58:27;23.20;;;20.80;;
35606;SDS011;21729;58.392;15.656;2023-04-24T07:00:56;23.23;;;20.83;;
35606;SDS011;21729;58.392;15.656;2023-04-24T07:03:23;23.63;;;21.03;;
35606;SDS011;21729;58.392;15.656;2023-04-24T07:05:51;25.50;;;22.80;;
35606;SDS011;21729;58.392;15.656;2023-04-24T07:08:20;23.63;;;21.02;;
35606;SDS011;21729;58.392;15.656;2023-04-24T07:10:48;24.25;;;21.58;;
35606;SDS011;21729;58.392;15.656;2023-04-24T07:13:16;26.17;;;21.90;;
35606;SDS011;21729;58.392;15.656;2023-04-24T07:15:43;24.52;;;21.73;;
35606;SDS011;21729;58.392;15.656;2023-04-24T07:18:10;25.52;;;22.10;;
35606;SDS011;21729;58.392;15.656;2023-04-24T07:20:39;24.17;;;21.58;;
35606;SDS011;21729;58.392;15.656;2023-04-24T07:23:06;24.65;;;21.73;;
35606;SDS011;21729;58.392;15.656;2023-04-24T07:25:34;23.77;;;21.13;;
35606;SDS011;21729;58.392;15.656;2023-04-24T07:28:02;23.90;;;20.53;;
35606;SDS011;21729;58.392;15.656;2023-04-24T07:30:30;23.05;;;20.58;;
35606;SDS011;21729;58.392;15.656;2023-04-24T07:32:57;23.55;;;20.70;;
35606;SDS011;21729;58.392;15.656;2023-04-24T07:35:25;23.63;;;20.88;;
35606;SDS011;21729;58.392;15.656;2023-04-24T07:37:52;22.27;;;19.85;;
35606;SDS011;21729;58.392;15.656;2023-04-24T07:40:20;24.88;;;21.40;;
35606;SDS011;21729;58.392;15.656;2023-04-24T07:42:49;25.33;;;22.08;;
35606;SDS011;21729;58.392;15.656;2023-04-24T07:45:16;23.43;;;20.93;;
35606;SDS011;21729;58.392;15.656;2023-04-24T07:47:43;23.63;;;21.13;;
35606;SDS011;21729;58.392;15.656;2023-04-24T07:50:10;24.10;;;19.88;;
35606;SDS011;21729;58.392;15.656;2023-04-24T07:52:38;25.08;;;21.20;;
35606;SDS011;21729;58.392;15.656;2023-04-24T07:55:05;24.63;;;21.50;;
35606;SDS011;21729;58.392;15.656;2023-04-24T07:57:33;23.50;;;20.60;;
35606;SDS011;21729;58.392;15.656;2023-04-24T08:00:02;24.50;;;21.27;;
35606;SDS011;21729;58.392;15.656;2023-04-24T08:02:30;23.98;;;21.20;;
35606;SDS011;21729;58.392;15.656;2023-04-24T08:04:58;23.48;;;20.85;;
35606;SDS011;21729;58.392;15.656;2023-04-24T08:07:25;24.20;;;21.17;;
35606;SDS011;21729;58.392;15.656;2023-04-24T08:09:52;23.23;;;20.55;;
35606;SDS011;21729;58.392;15.656;2023-04-24T08:12:22;22.67;;;20.10;;
35606;SDS011;21729;58.392;15.656;2023-04-24T08:14:49;22.90;;;20.40;;
35606;SDS011;21729;58.392;15.656;2023-04-24T08:17:18;23.43;;;20.63;;
35606;SDS011;21729;58.392;15.656;2023-04-24T08:19:45;24.27;;;20.67;;
35606;SDS011;21729;58.392;15.656;2023-04-24T08:22:14;23.08;;;20.10;;
35606;SDS011;21729;58.392;15.656;2023-04-24T08:24:41;22.33;;;19.43;;
35606;SDS011;21729;58.392;15.656;2023-04-24T08:27:08;22.52;;;19.90;;
35606;SDS011;21729;58.392;15.656;2023-04-24T08:29:36;22.63;;;19.93;;
35606;SDS011;21729;58.392;15.656;2023-04-24T08:32:04;24.60;;;20.38;;
35606;SDS011;21729;58.392;15.656;2023-04-24T08:34:33;22.50;;;20.08;;
35606;SDS011;21729;58.392;15.656;2023-04-24T08:37:00;21.25;;;18.92;;
35606;SDS011;21729;58.392;15.656;2023-04-24T08:39:28;22.48;;;19.58;;
35606;SDS011;21729;58.392;15.656;2023-04-24T08:41:55;20.98;;;18.05;;
35606;SDS011;21729;58.392;15.656;2023-04-24T08:44:30;21.35;;;18.10;;
35606;SDS011;21729;58.392;15.656;2023-04-24T08:46:58;20.73;;;18.45;;
35606;SDS011;21729;58.392;15.656;2023-04-24T08:49:27;21.77;;;18.95;;
35606;SDS011;21729;58.392;15.656;2023-04-24T08:51:57;26.23;;;22.00;;
35606;SDS011;21729;58.392;15.656;2023-04-24T08:54:25;23.83;;;19.48;;
35606;SDS011;21729;58.392;15.656;2023-04-24T08:56:54;22.85;;;19.65;;
35606;SDS011;21729;58.392;15.656;2023-04-24T08:59:26;20.95;;;18.60;;
35606;SDS011;21729;58.392;15.656;2023-04-24T09:01:54;23.40;;;19.70;;
35606;SDS011;21729;58.392;15.656;2023-04-24T09:04:22;22.90;;;18.67;;
35606;SDS011;21729;58.392;15.656;2023-04-24T09:06:51;22.15;;;17.02;;
35606;SDS011;21729;58.392;15.656;2023-04-24T09:09:22;21.67;;;18.17;;
35606;SDS011;21729;58.392;15.656;2023-04-24T09:11:49;22.45;;;18.30;;
35606;SDS011;21729;58.392;15.656;2023-04-24T09:14:20;20.87;;;17.27;;
35606;SDS011;21729;58.392;15.656;2023-04-24T09:16:48;21.27;;;17.77;;
35606;SDS011;21729;58.392;15.656;2023-04-24T09:19:16;23.77;;;18.45;;
35606;SDS011;21729;58.392;15.656;2023-04-24T09:21:45;21.48;;;18.77;;
35606;SDS011;21729;58.392;15.656;2023-04-24T09:24:14;22.23;;;18.75;;
35606;SDS011;21729;58.392;15.656;2023-04-24T09:26:44;24.77;;;19.50;;
35606;SDS011;21729;58.392;15.656;2023-04-24T09:29:14;21.80;;;18.20;;
35606;SDS011;21729;58.392;15.656;2023-04-24T09:31:42;22.25;;;18.00;;
35606;SDS011;21729;58.392;15.656;2023-04-24T09:34:10;21.92;;;18.25;;
35606;SDS011;21729;58.392;15.656;2023-04-24T09:36:38;21.93;;;18.70;;
35606;SDS011;21729;58.392;15.656;2023-04-24T09:39:07;25.15;;;19.25;;
35606;SDS011;21729;58.392;15.656;2023-04-24T09:41:38;21.20;;;18.13;;
35606;SDS011;21729;58.392;15.656;2023-04-24T09:44:12;23.33;;;18.65;;
35606;SDS011;21729;58.392;15.656;2023-04-24T09:46:41;22.80;;;19.15;;
35606;SDS011;21729;58.392;15.656;2023-04-24T09:49:12;23.13;;;19.15;;
35606;SDS011;21729;58.392;15.656;2023-04-24T09:51:41;23.15;;;19.63;;
35606;SDS011;21729;58.392;15.656;2023-04-24T09:54:15;23.58;;;20.58;;
35606;SDS011;21729;58.392;15.656;2023-04-24T09:56:45;22.33;;;19.52;;
35606;SDS011;21729;58.392;15.656;2023-04-24T09:59:14;22.35;;;18.85;;
35606;SDS011;21729;58.392;15.656;2023-04-24T10:01:42;23.52;;;19.05;;
35606;SDS011;21729;58.392;15.656;2023-04-24T10:04:17;21.88;;;18.70;;
35606;SDS011;21729;58.392;15.656;2023-04-24T10:06:46;22.27;;;18.52;;
35606;SDS011;21729;58.392;15.656;2023-04-24T10:09:15;23.10;;;19.23;;
35606;SDS011;21729;58.392;15.656;2023-04-24T10:11:42;22.45;;;18.98;;
35606;SDS011;21729;58.392;15.656;2023-04-24T10:14:12;22.02;;;17.73;;
35606;SDS011;21729;58.392;15.656;2023-04-24T10:16:41;22.08;;;17.98;;
35606;SDS011;21729;58.392;15.656;2023-04-24T10:19:09;21.40;;;17.65;;
35606;SDS011;21729;58.392;15.656;2023-04-24T10:21:38;21.10;;;17.85;;
35606;SDS011;21729;58.392;15.656;2023-04-24T10:24:11;20.42;;;18.13;;
35606;SDS011;21729;58.392;15.656;2023-04-24T10:26:40;20.40;;;17.73;;
35606;SDS011;21729;58.392;15.656;2023-04-24T10:29:09;22.80;;;17.92;;
35606;SDS011;21729;58.392;15.656;2023-04-24T10:31:38;20.23;;;17.90;;
35606;SDS011;21729;58.392;15.656;2023-04-24T10:34:07;20.02;;;17.88;;
35606;SDS011;21729;58.392;15.656;2023-04-24T10:36:38;21.08;;;17.45;;
35606;SDS011;21729;58.392;15.656;2023-04-24T10:39:09;20.47;;;17.90;;
35606;SDS011;21729;58.392;15.656;2023-04-24T10:41:40;23.08;;;17.65;;
35606;SDS011;21729;58.392;15.656;2023-04-24T10:44:10;19.67;;;17.17;;
35606;SDS011;21729;58.392;15.656;2023-04-24T10:46:38;18.80;;;16.38;;
35606;SDS011;21729;58.392;15.656;2023-04-24T10:49:09;19.95;;;16.30;;
35606;SDS011;21729;58.392;15.656;2023-04-24T10:51:44;20.83;;;16.85;;
35606;SDS011;21729;58.392;15.656;2023-04-24T10:54:22;20.25;;;16.20;;
35606;SDS011;21729;58.392;15.656;2023-04-24T10:56:51;18.77;;;15.87;;
35606;SDS011;21729;58.392;15.656;2023-04-24T10:59:26;19.15;;;16.13;;
35606;SDS011;21729;58.392;15.656;2023-04-24T11:02:02;20.27;;;15.98;;
35606;SDS011;21729;58.392;15.656;2023-04-24T11:04:33;19.50;;;16.60;;
35606;SDS011;21729;58.392;15.656;2023-04-24T11:07:02;18.83;;;16.00;;
35606;SDS011;21729;58.392;15.656;2023-04-24T11:09:30;18.05;;;15.55;;
35606;SDS011;21729;58.392;15.656;2023-04-24T11:12:04;19.15;;;16.10;;
35606;SDS011;21729;58.392;15.656;2023-04-24T11:17:29;17.92;;;15.77;;
35606;SDS011;21729;58.392;15.656;2023-04-24T11:20:01;20.27;;;15.33;;
35606;SDS011;21729;58.392;15.656;2023-04-24T11:22:30;18.67;;;15.77;;
35606;SDS011;21729;58.392;15.656;2023-04-24T11:25:01;17.20;;;14.60;;
35606;SDS011;21729;58.392;15.656;2023-04-24T11:27:30;17.50;;;14.48;;
35606;SDS011;21729;58.392;15.656;2023-04-24T11:30:01;16.83;;;14.98;;
35606;SDS011;21729;58.392;15.656;2023-04-24T11:32:30;17.25;;;14.88;;
35606;SDS011;21729;58.392;15.656;2023-04-24T11:35:01;16.30;;;14.60;;
35606;SDS011;21729;58.392;15.656;2023-04-24T11:37:33;18.60;;;14.52;;
35606;SDS011;21729;58.392;15.656;2023-04-24T11:40:01;16.10;;;13.48;;
35606;SDS011;21729;58.392;15.656;2023-04-24T11:42:33;16.92;;;14.60;;
35606;SDS011;21729;58.392;15.656;2023-04-24T11:45:06;15.48;;;13.45;;
35606;SDS011;21729;58.392;15.656;2023-04-24T11:47:35;16.17;;;13.65;;
35606;SDS011;21729;58.392;15.656;2023-04-24T11:50:02;16.98;;;14.38;;
35606;SDS011;21729;58.392;15.656;2023-04-24T11:52:32;15.63;;;13.45;;
35606;SDS011;21729;58.392;15.656;2023-04-24T11:55:06;14.48;;;12.90;;
35606;SDS011;21729;58.392;15.656;2023-04-24T11:57:35;14.00;;;12.50;;
35606;SDS011;21729;58.392;15.656;2023-04-24T12:00:04;14.63;;;12.38;;
35606;SDS011;21729;58.392;15.656;2023-04-24T12:02:33;15.90;;;12.82;;
35606;SDS011;21729;58.392;15.656;2023-04-24T12:05:00;16.55;;;13.63;;
35606;SDS011;21729;58.392;15.656;2023-04-24T12:07:29;14.18;;;12.68;;
35606;SDS011;21729;58.392;15.656;2023-04-24T12:10:08;16.20;;;13.25;;
35606;SDS011;21729;58.392;15.656;2023-04-24T12:12:35;15.00;;;12.65;;
35606;SDS011;21729;58.392;15.656;2023-04-24T12:15:07;13.75;;;11.32;;
35606;SDS011;21729;58.392;15.656;2023-04-24T12:17:40;15.10;;;12.07;;
35606;SDS011;21729;58.392;15.656;2023-04-24T12:20:09;13.63;;;11.85;;
35606;SDS011;21729;58.392;15.656;2023-04-24T12:22:43;14.70;;;11.98;;
35606;SDS011;21729;58.392;15.656;2023-04-24T12:25:12;14.63;;;11.32;;
35606;SDS011;21729;58.392;15.656;2023-04-24T12:27:41;13.65;;;11.25;;
35606;SDS011;21729;58.392;15.656;2023-04-24T12:30:12;12.35;;;10.95;;
35606;SDS011;21729;58.392;15.656;2023-04-24T12:32:41;12.63;;;10.60;;
35606;SDS011;21729;58.392;15.656;2023-04-24T12:35:09;12.30;;;10.43;;
35606;SDS011;21729;58.392;15.656;2023-04-24T12:37:43;12.32;;;10.15;;
35606;SDS011;21729;58.392;15.656;2023-04-24T12:40:10;11.48;;;9.50;;
35606;SDS011;21729;58.392;15.656;2023-04-24T12:42:41;12.10;;;10.00;;
35606;SDS011;21729;58.392;15.656;2023-04-24T12:45:11;11.73;;;9.57;;
35606;SDS011;21729;58.392;15.656;2023-04-24T12:47:40;10.85;;;9.55;;
35606;SDS011;21729;58.392;15.656;2023-04-24T12:50:09;11.90;;;9.48;;
35606;SDS011;21729;58.392;15.656;2023-04-24T12:52:38;9.77;;;8.73;;
35606;SDS011;21729;58.392;15.656;2023-04-24T12:55:06;9.57;;;8.52;;
35606;SDS011;21729;58.392;15.656;2023-04-24T12:57:35;9.05;;;8.15;;
35606;SDS011;21729;58.392;15.656;2023-04-24T13:00:05;9.95;;;8.23;;
35606;SDS011;21729;58.392;15.656;2023-04-24T13:02:36;11.60;;;8.23;;
35606;SDS011;21729;58.392;15.656;2023-04-24T13:05:06;10.27;;;8.10;;
35606;SDS011;21729;58.392;15.656;2023-04-24T13:07:34;11.13;;;8.50;;
35606;SDS011;21729;58.392;15.656;2023-04-24T13:10:02;21.02;;;9.25;;
35606;SDS011;21729;58.392;15.656;2023-04-24T13:12:29;15.00;;;8.85;;
35606;SDS011;21729;58.392;15.656;2023-04-24T13:14:57;11.27;;;8.70;;
35606;SDS011;21729;58.392;15.656;2023-04-24T13:17:25;10.57;;;8.50;;
35606;SDS011;21729;58.392;15.656;2023-04-24T13:19:54;13.65;;;7.85;;
35606;SDS011;21729;58.392;15.656;2023-04-24T13:22:22;9.43;;;7.80;;
35606;SDS011;21729;58.392;15.656;2023-04-24T13:24:50;11.23;;;7.72;;
35606;SDS011;21729;58.392;15.656;2023-04-24T13:27:17;11.63;;;8.15;;
35606;SDS011;21729;58.392;15.656;2023-04-24T13:29:45;10.43;;;7.70;;
35606;SDS011;21729;58.392;15.656;2023-04-24T13:32:13;11.88;;;7.43;;
35606;SDS011;21729;58.392;15.656;2023-04-24T13:34:41;10.98;;;7.75;;
35606;SDS011;21729;58.392;15.656;2023-04-24T13:37:15;9.80;;;7.57;;
35606;SDS011;21729;58.392;15.656;2023-04-24T13:39:43;9.00;;;7.55;;
35606;SDS011;21729;58.392;15.656;2023-04-24T13:42:11;8.85;;;7.72;;
35606;SDS011;21729;58.392;15.656;2023-04-24T13:44:39;8.87;;;7.20;;
35606;SDS011;21729;58.392;15.656;2023-04-24T13:47:12;8.47;;;6.50;;
35606;SDS011;21729;58.392;15.656;2023-04-24T13:49:40;9.03;;;7.50;;
35606;SDS011;21729;58.392;15.656;2023-04-24T13:52:08;8.43;;;7.35;;
35606;SDS011;21729;58.392;15.656;2023-04-24T13:54:37;8.63;;;7.50;;
35606;SDS011;21729;58.392;15.656;2023-04-24T13:57:06;8.60;;;7.57;;
35606;SDS011;21729;58.392;15.656;2023-04-24T13:59:33;8.55;;;7.47;;
35606;SDS011;21729;58.392;15.656;2023-04-24T14:02:00;8.98;;;7.25;;
35606;SDS011;21729;58.392;15.656;2023-04-24T14:04:27;8.57;;;7.67;;
35606;SDS011;21729;58.392;15.656;2023-04-24T14:07:00;8.15;;;7.22;;
35606;SDS011;21729;58.392;15.656;2023-04-24T14:09:27;8.60;;;6.93;;
35606;SDS011;21729;58.392;15.656;2023-04-24T14:11:56;8.67;;;7.07;;
35606;SDS011;21729;58.392;15.656;2023-04-24T14:14:23;10.15;;;7.03;;
35606;SDS011;21729;58.392;15.656;2023-04-24T14:16:56;7.75;;;6.95;;
35606;SDS011;21729;58.392;15.656;2023-04-24T14:19:23;10.23;;;6.57;;
35606;SDS011;21729;58.392;15.656;2023-04-24T14:21:50;8.25;;;7.40;;